sensor_id;sensor_type;location;lat;lon;timestamp;pressure;altitude;pressure_sealevel;temperature;humidity
78623;BME280;67943;54.412;9.502;2023-10-08T00:00:47;101959.28;;;11.05;89.06
78623;BME280;67943;54.412;9.502;2023-10-08T00:05:49;101961.03;;;11.03;89.21
78623;BME280;67943;54.412;9.502;2023-10-08T00:10:51;101984.75;;;11.02;89.11
78623;BME280;67943;54.412;9.502;2023-10-08T00:15:55;102019.88;;;10.98;89.21
78623;BME280;67943;54.412;9.502;2023-10-08T00:20:57;102005.84;;;10.97;89.38
78623;BME280;67943;54.412;9.502;2023-10-08T00:26:16;102033.91;;;11.00;88.09
78623;BME280;67943;54.412;9.502;2023-10-08T00:31:22;101994.47;;;10.95;87.77
78623;BME280;67943;54.412;9.502;2023-10-08T00:36:26;102009.38;;;10.92;87.64
78623;BME280;67943;54.412;9.502;2023-10-08T00:41:28;102012.91;;;10.88;87.95
78623;BME280;67943;54.412;9.502;2023-10-08T00:46:32;102043.66;;;10.76;86.91
78623;BME280;67943;54.412;9.502;2023-10-08T00:51:40;102003.34;;;10.65;87.64
78623;BME280;67943;54.412;9.502;2023-10-08T00:56:42;102020.88;;;10.62;88.18
78623;BME280;67943;54.412;9.502;2023-10-08T01:01:52;102027.91;;;10.63;88.39
78623;BME280;67943;54.412;9.502;2023-10-08T01:07:01;102027.03;;;10.59;88.43
78623;BME280;67943;54.412;9.502;2023-10-08T01:12:11;102016.50;;;10.56;88.22
78623;BME280;67943;54.412;9.502;2023-10-08T01:17:17;102011.25;;;10.53;88.18
78623;BME280;67943;54.412;9.502;2023-10-08T01:22:21;102027.03;;;10.53;88.33
78623;BME280;67943;54.412;9.502;2023-10-08T01:27:22;102042.81;;;10.56;88.52
78623;BME280;67943;54.412;9.502;2023-10-08T01:32:25;102035.81;;;10.52;88.10
78623;BME280;67943;54.412;9.502;2023-10-08T01:37:28;102037.56;;;10.50;87.93
78623;BME280;67943;54.412;9.502;2023-10-08T01:42:34;102014.75;;;10.46;88.24
78623;BME280;67943;54.412;9.502;2023-10-08T01:47:39;102026.16;;;10.45;88.48
78623;BME280;67943;54.412;9.502;2023-10-08T01:52:42;102031.44;;;10.42;88.64
78623;BME280;67943;54.412;9.502;2023-10-08T01:57:47;102054.25;;;10.32;88.54
78623;BME280;67943;54.412;9.502;2023-10-08T02:02:50;102040.22;;;10.20;88.63
78623;BME280;67943;54.412;9.502;2023-10-08T02:07:53;102050.69;;;10.12;88.58
78623;BME280;67943;54.412;9.502;2023-10-08T02:12:55;102063.88;;;10.01;89.32
78623;BME280;67943;54.412;9.502;2023-10-08T02:17:56;102061.22;;;9.95;89.86
78623;BME280;67943;54.412;9.502;2023-10-08T02:23:00;102064.72;;;9.99;90.74
78623;BME280;67943;54.412;9.502;2023-10-08T02:28:02;102083.16;;;10.00;90.30
78623;BME280;67943;54.412;9.502;2023-10-08T02:33:04;102072.63;;;10.00;90.45
78623;BME280;67943;54.412;9.502;2023-10-08T02:38:17;102073.50;;;10.04;89.76
78623;BME280;67943;54.412;9.502;2023-10-08T02:43:18;102093.66;;;9.99;89.92
78623;BME280;67943;54.412;9.502;2023-10-08T02:48:20;102105.91;;;9.95;89.40
78623;BME280;67943;54.412;9.502;2023-10-08T02:53:24;102104.16;;;9.91;89.63
78623;BME280;67943;54.412;9.502;2023-10-08T02:58:26;102117.28;;;9.83;89.55
78623;BME280;67943;54.412;9.502;2023-10-08T03:03:28;102116.44;;;9.81;89.21
78623;BME280;67943;54.412;9.502;2023-10-08T03:08:31;102121.66;;;9.72;89.79
78623;BME280;67943;54.412;9.502;2023-10-08T03:13:37;102118.09;;;9.63;89.65
78623;BME280;67943;54.412;9.502;2023-10-08T03:18:39;102131.19;;;9.49;89.78
78623;BME280;67943;54.412;9.502;2023-10-08T03:23:44;102137.28;;;9.37;89.59
78623;BME280;67943;54.412;9.502;2023-10-08T03:28:47;102170.50;;;9.29;90.39
78623;BME280;67943;54.412;9.502;2023-10-08T03:33:57;102171.34;;;9.27;90.70
78623;BME280;67943;54.412;9.502;2023-10-08T03:39:00;102187.09;;;9.22;90.38
78623;BME280;67943;54.412;9.502;2023-10-08T03:44:11;102173.97;;;9.21;90.18
78623;BME280;67943;54.412;9.502;2023-10-08T03:49:13;102187.94;;;9.15;89.95
78623;BME280;67943;54.412;9.502;2023-10-08T03:54:26;102185.25;;;9.06;90.14
78623;BME280;67943;54.412;9.502;2023-10-08T03:59:35;102201.00;;;9.09;91.25
78623;BME280;67943;54.412;9.502;2023-10-08T04:04:41;102190.53;;;9.13;91.17
78623;BME280;67943;54.412;9.502;2023-10-08T04:09:53;102208.97;;;9.18;91.21
78623;BME280;67943;54.412;9.502;2023-10-08T04:15:07;102194.94;;;9.16;90.65
78623;BME280;67943;54.412;9.502;2023-10-08T04:20:10;102214.22;;;9.18;90.69
78623;BME280;67943;54.412;9.502;2023-10-08T04:25:32;102210.69;;;9.16;92.15
78623;BME280;67943;54.412;9.502;2023-10-08T04:30:34;102209.88;;;9.22;92.17
78623;BME280;67943;54.412;9.502;2023-10-08T04:35:37;102215.09;;;9.19;90.85
78623;BME280;67943;54.412;9.502;2023-10-08T04:40:50;102239.50;;;9.05;89.81
78623;BME280;67943;54.412;9.502;2023-10-08T04:45:52;102254.25;;;8.90;89.70
78623;BME280;67943;54.412;9.502;2023-10-08T04:50:54;102244.53;;;8.78;89.40
78623;BME280;67943;54.412;9.502;2023-10-08T04:56:01;102259.31;;;8.70;89.80
78623;BME280;67943;54.412;9.502;2023-10-08T05:01:06;102268.88;;;8.63;89.79
78623;BME280;67943;54.412;9.502;2023-10-08T05:06:18;102282.00;;;8.63;90.11
78623;BME280;67943;54.412;9.502;2023-10-08T05:11:41;102287.16;;;8.54;89.95
78623;BME280;67943;54.412;9.502;2023-10-08T05:17:08;102293.22;;;8.49;90.62
78623;BME280;67943;54.412;9.502;2023-10-08T05:22:13;102296.63;;;8.41;89.50
78623;BME280;67943;54.412;9.502;2023-10-08T05:27:31;102299.94;;;8.28;89.84
78623;BME280;67943;54.412;9.502;2023-10-08T05:32:57;102311.13;;;8.13;89.70
78623;BME280;67943;54.412;9.502;2023-10-08T05:38:17;102311.78;;;7.96;89.20
78623;BME280;67943;54.412;9.502;2023-10-08T05:43:26;102323.81;;;7.83;88.99
78623;BME280;67943;54.412;9.502;2023-10-08T05:48:50;102323.72;;;7.75;89.24
78623;BME280;67943;54.412;9.502;2023-10-08T05:54:02;102337.56;;;7.67;89.39
78623;BME280;67943;54.412;9.502;2023-10-08T05:59:25;102333.03;;;7.57;89.27
78623;BME280;67943;54.412;9.502;2023-10-08T06:04:38;102344.28;;;7.51;89.37
78623;BME280;67943;54.412;9.502;2023-10-08T06:09:54;102326.88;;;7.53;89.80
78623;BME280;67943;54.412;9.502;2023-10-08T06:15:07;102344.47;;;7.62;90.58
78623;BME280;67943;54.412;9.502;2023-10-08T06:20:11;102370.94;;;7.78;91.11
78623;BME280;67943;54.412;9.502;2023-10-08T06:25:16;102366.91;;;8.02;91.37
78623;BME280;67943;54.412;9.502;2023-10-08T06:30:25;102381.13;;;8.19;91.38
78623;BME280;67943;54.412;9.502;2023-10-08T06:35:29;102383.00;;;8.29;91.02
78623;BME280;67943;54.412;9.502;2023-10-08T06:40:33;102391.91;;;8.40;91.15
78623;BME280;67943;54.412;9.502;2023-10-08T06:45:44;102406.13;;;8.58;91.37
78623;BME280;67943;54.412;9.502;2023-10-08T06:50:48;102413.38;;;8.78;91.34
78623;BME280;67943;54.412;9.502;2023-10-08T06:55:49;102415.38;;;9.02;91.83
78623;BME280;67943;54.412;9.502;2023-10-08T07:00:59;102425.19;;;9.19;90.97
78623;BME280;67943;54.412;9.502;2023-10-08T07:06:05;102427.16;;;9.39;90.72
78623;BME280;67943;54.412;9.502;2023-10-08T07:11:16;102420.34;;;9.63;90.25
78623;BME280;67943;54.412;9.502;2023-10-08T07:16:22;102436.34;;;9.95;89.03
78623;BME280;67943;54.412;9.502;2023-10-08T07:21:24;102449.72;;;10.24;88.38
78623;BME280;67943;54.412;9.502;2023-10-08T07:26:29;102449.03;;;10.54;85.90
78623;BME280;67943;54.412;9.502;2023-10-08T07:31:38;102460.50;;;10.65;85.02
78623;BME280;67943;54.412;9.502;2023-10-08T07:36:42;102471.09;;;10.85;85.32
78623;BME280;67943;54.412;9.502;2023-10-08T07:41:44;102478.25;;;11.30;85.18
78623;BME280;67943;54.412;9.502;2023-10-08T07:46:47;102469.56;;;11.78;82.79
78623;BME280;67943;54.412;9.502;2023-10-08T07:51:49;102478.31;;;12.13;80.50
78623;BME280;67943;54.412;9.502;2023-10-08T07:56:52;102469.44;;;12.51;79.24
78623;BME280;67943;54.412;9.502;2023-10-08T08:01:59;102485.16;;;12.89;77.86
78623;BME280;67943;54.412;9.502;2023-10-08T08:07:00;102499.06;;;13.32;75.47
78623;BME280;67943;54.412;9.502;2023-10-08T08:12:05;102504.22;;;13.57;74.56
78623;BME280;67943;54.412;9.502;2023-10-08T08:17:13;102512.59;;;14.10;73.06
78623;BME280;67943;54.412;9.502;2023-10-08T08:22:16;102513.06;;;14.57;71.05
78623;BME280;67943;54.412;9.502;2023-10-08T08:27:21;102515.91;;;15.13;69.90
78623;BME280;67943;54.412;9.502;2023-10-08T08:32:27;102528.72;;;15.45;68.04
78623;BME280;67943;54.412;9.502;2023-10-08T08:37:28;102532.44;;;15.92;65.69
78623;BME280;67943;54.412;9.502;2023-10-08T08:42:33;102527.03;;;16.47;63.50
78623;BME280;67943;54.412;9.502;2023-10-08T08:47:38;102534.34;;;16.84;60.33
78623;BME280;67943;54.412;9.502;2023-10-08T08:52:41;102547.75;;;17.23;59.34
78623;BME280;67943;54.412;9.502;2023-10-08T08:57:47;102543.09;;;17.72;56.93
78623;BME280;67943;54.412;9.502;2023-10-08T09:02:53;102548.19;;;18.51;53.33
78623;BME280;67943;54.412;9.502;2023-10-08T09:07:56;102558.78;;;18.86;51.53
78623;BME280;67943;54.412;9.502;2023-10-08T09:12:59;102566.56;;;19.25;50.09
78623;BME280;67943;54.412;9.502;2023-10-08T09:18:02;102568.41;;;19.82;48.51
78623;BME280;67943;54.412;9.502;2023-10-08T09:23:06;102574.25;;;20.72;46.94
78623;BME280;67943;54.412;9.502;2023-10-08T09:28:09;102577.13;;;20.41;44.88
78623;BME280;67943;54.412;9.502;2023-10-08T09:33:14;102584.22;;;20.42;43.92
78623;BME280;67943;54.412;9.502;2023-10-08T09:38:17;102593.34;;;20.86;40.96
78623;BME280;67943;54.412;9.502;2023-10-08T09:43:24;102562.72;;;21.87;38.68
78623;BME280;67943;54.412;9.502;2023-10-08T09:48:29;102588.75;;;22.49;36.74
78623;BME280;67943;54.412;9.502;2023-10-08T09:53:36;102572.69;;;23.27;33.96
78623;BME280;67943;54.412;9.502;2023-10-08T09:58:42;102590.69;;;23.44;31.45
78623;BME280;67943;54.412;9.502;2023-10-08T10:03:46;102591.06;;;24.63;30.58
78623;BME280;67943;54.412;9.502;2023-10-08T10:08:48;102591.97;;;25.94;28.52
78623;BME280;67943;54.412;9.502;2023-10-08T10:13:51;102605.88;;;26.48;26.41
78623;BME280;67943;54.412;9.502;2023-10-08T10:19:01;102603.91;;;27.10;25.22
78623;BME280;67943;54.412;9.502;2023-10-08T10:24:03;102582.88;;;28.76;24.22
78623;BME280;67943;54.412;9.502;2023-10-08T10:29:22;102585.53;;;27.29;25.62
78623;BME280;67943;54.412;9.502;2023-10-08T10:34:28;102590.56;;;25.07;29.13
78623;BME280;67943;54.412;9.502;2023-10-08T10:39:31;102575.59;;;23.79;30.33
78623;BME280;67943;54.412;9.502;2023-10-08T10:44:34;102558.09;;;23.89;30.72
78623;BME280;67943;54.412;9.502;2023-10-08T10:49:38;102550.78;;;24.27;29.08
78623;BME280;67943;54.412;9.502;2023-10-08T10:54:48;102531.13;;;23.90;31.67
78623;BME280;67943;54.412;9.502;2023-10-08T11:00:01;102538.16;;;23.57;31.66
78623;BME280;67943;54.412;9.502;2023-10-08T11:05:20;102547.00;;;23.03;32.47
78623;BME280;67943;54.412;9.502;2023-10-08T11:10:30;102541.66;;;23.95;31.25
78623;BME280;67943;54.412;9.502;2023-10-08T11:15:32;102529.00;;;26.09;28.70
78623;BME280;67943;54.412;9.502;2023-10-08T11:20:42;102506.00;;;27.19;25.29
78623;BME280;67943;54.412;9.502;2023-10-08T11:25:55;102534.72;;;25.89;26.25
78623;BME280;67943;54.412;9.502;2023-10-08T11:31:01;102522.69;;;25.16;27.97
78623;BME280;67943;54.412;9.502;2023-10-08T11:36:10;102522.00;;;26.94;25.95
78623;BME280;67943;54.412;9.502;2023-10-08T11:41:19;102521.31;;;27.74;23.99
78623;BME280;67943;54.412;9.502;2023-10-08T11:46:28;102527.22;;;28.85;23.30
78623;BME280;67943;54.412;9.502;2023-10-08T11:51:35;102515.25;;;29.00;23.06
78623;BME280;67943;54.412;9.502;2023-10-08T11:56:36;102513.44;;;27.71;24.84
78623;BME280;67943;54.412;9.502;2023-10-08T12:01:39;102510.47;;;25.26;25.86
78623;BME280;67943;54.412;9.502;2023-10-08T12:06:44;102500.84;;;23.68;29.24
78623;BME280;67943;54.412;9.502;2023-10-08T12:11:47;102498.91;;;23.72;28.95
78623;BME280;67943;54.412;9.502;2023-10-08T12:16:48;102507.34;;;24.17;28.97
78623;BME280;67943;54.412;9.502;2023-10-08T12:21:53;102512.97;;;23.77;29.27
78623;BME280;67943;54.412;9.502;2023-10-08T12:26:55;102513.84;;;22.83;30.89
78623;BME280;67943;54.412;9.502;2023-10-08T12:31:56;102525.34;;;21.62;32.64
78623;BME280;67943;54.412;9.502;2023-10-08T12:37:01;102530.03;;;20.62;35.16
78623;BME280;67943;54.412;9.502;2023-10-08T12:42:02;102531.69;;;19.88;35.12
78623;BME280;67943;54.412;9.502;2023-10-08T12:47:06;102540.69;;;19.29;38.81
78623;BME280;67943;54.412;9.502;2023-10-08T12:52:08;102545.63;;;18.80;38.76
78623;BME280;67943;54.412;9.502;2023-10-08T12:57:12;102552.78;;;18.46;38.33
78623;BME280;67943;54.412;9.502;2023-10-08T13:02:17;102558.72;;;18.21;38.27
78623;BME280;67943;54.412;9.502;2023-10-08T13:07:20;102563.72;;;18.00;40.54
78623;BME280;67943;54.412;9.502;2023-10-08T13:12:22;102557.00;;;17.85;40.82
78623;BME280;67943;54.412;9.502;2023-10-08T13:17:24;102565.34;;;17.70;41.01
78623;BME280;67943;54.412;9.502;2023-10-08T13:22:27;102551.44;;;17.55;41.50
78623;BME280;67943;54.412;9.502;2023-10-08T13:27:28;102551.78;;;17.40;41.13
78623;BME280;67943;54.412;9.502;2023-10-08T13:32:30;102565.41;;;17.27;41.44
78623;BME280;67943;54.412;9.502;2023-10-08T13:37:34;102557.56;;;17.19;41.33
78623;BME280;67943;54.412;9.502;2023-10-08T13:42:36;102554.19;;;17.11;42.28
78623;BME280;67943;54.412;9.502;2023-10-08T13:47:38;102547.50;;;16.92;43.85
78623;BME280;67943;54.412;9.502;2023-10-08T13:52:41;102539.75;;;16.79;43.78
78623;BME280;67943;54.412;9.502;2023-10-08T13:57:44;102545.38;;;16.64;44.27
78623;BME280;67943;54.412;9.502;2023-10-08T14:02:48;102546.38;;;16.57;45.10
78623;BME280;67943;54.412;9.502;2023-10-08T14:07:53;102545.66;;;16.47;45.03
78623;BME280;67943;54.412;9.502;2023-10-08T14:12:55;102537.81;;;16.41;46.22
78623;BME280;67943;54.412;9.502;2023-10-08T14:17:56;102537.97;;;16.32;44.16
78623;BME280;67943;54.412;9.502;2023-10-08T14:23:02;102528.41;;;16.20;44.66
78623;BME280;67943;54.412;9.502;2023-10-08T14:28:04;102531.22;;;16.14;43.68
78623;BME280;67943;54.412;9.502;2023-10-08T14:33:08;102514.50;;;16.08;43.69
78623;BME280;67943;54.412;9.502;2023-10-08T14:38:14;102506.59;;;16.03;45.31
78623;BME280;67943;54.412;9.502;2023-10-08T14:43:34;102500.47;;;16.00;45.12
78623;BME280;67943;54.412;9.502;2023-10-08T14:48:38;102500.56;;;15.94;45.08
78623;BME280;67943;54.412;9.502;2023-10-08T14:53:42;102493.66;;;15.85;45.99
78623;BME280;67943;54.412;9.502;2023-10-08T14:58:43;102479.66;;;15.74;47.16
78623;BME280;67943;54.412;9.502;2023-10-08T15:03:45;102478.84;;;15.69;47.08
78623;BME280;67943;54.412;9.502;2023-10-08T15:08:48;102468.31;;;15.64;47.35
78623;BME280;67943;54.412;9.502;2023-10-08T15:13:50;102468.47;;;15.57;47.80
78623;BME280;67943;54.412;9.502;2023-10-08T15:18:54;102462.34;;;15.50;48.91
78623;BME280;67943;54.412;9.502;2023-10-08T15:23:58;102462.44;;;15.42;48.34
78623;BME280;67943;54.412;9.502;2023-10-08T15:29:05;102451.88;;;15.39;49.73
78623;BME280;67943;54.412;9.502;2023-10-08T15:34:07;102450.34;;;15.25;50.60
78623;BME280;67943;54.412;9.502;2023-10-08T15:39:10;102445.09;;;15.20;51.84
78623;BME280;67943;54.412;9.502;2023-10-08T15:44:13;102430.09;;;15.17;53.10
78623;BME280;67943;54.412;9.502;2023-10-08T15:49:15;102431.94;;;15.14;54.10
78623;BME280;67943;54.412;9.502;2023-10-08T15:54:20;102414.38;;;15.04;54.63
78623;BME280;67943;54.412;9.502;2023-10-08T15:59:22;102444.56;;;14.97;55.24
78623;BME280;67943;54.412;9.502;2023-10-08T16:04:24;102445.53;;;14.88;55.93
78623;BME280;67943;54.412;9.502;2023-10-08T16:09:29;102446.53;;;14.79;56.56
78623;BME280;67943;54.412;9.502;2023-10-08T16:14:31;102433.41;;;14.72;57.00
78623;BME280;67943;54.412;9.502;2023-10-08T16:19:33;102433.47;;;14.67;57.72
78623;BME280;67943;54.412;9.502;2023-10-08T16:24:36;102429.97;;;14.64;57.46
78623;BME280;67943;54.412;9.502;2023-10-08T16:29:37;102422.09;;;14.56;58.56
78623;BME280;67943;54.412;9.502;2023-10-08T16:34:39;102435.44;;;14.48;59.59
78623;BME280;67943;54.412;9.502;2023-10-08T16:39:42;102418.78;;;14.36;60.78
78623;BME280;67943;54.412;9.502;2023-10-08T16:44:43;102401.19;;;14.32;60.62
78623;BME280;67943;54.412;9.502;2023-10-08T16:49:45;102387.94;;;14.32;59.97
78623;BME280;67943;54.412;9.502;2023-10-08T16:54:48;102387.09;;;14.28;60.43
78623;BME280;67943;54.412;9.502;2023-10-08T16:59:49;102398.59;;;14.24;60.94
78623;BME280;67943;54.412;9.502;2023-10-08T17:04:51;102380.16;;;14.16;61.46
78623;BME280;67943;54.412;9.502;2023-10-08T17:09:54;102388.13;;;14.15;61.47
78623;BME280;67943;54.412;9.502;2023-10-08T17:14:55;102397.94;;;14.05;61.65
78623;BME280;67943;54.412;9.502;2023-10-08T17:19:57;102387.41;;;14.01;61.40
78623;BME280;67943;54.412;9.502;2023-10-08T17:25:00;102379.50;;;13.96;61.02
78623;BME280;67943;54.412;9.502;2023-10-08T17:30:07;102387.50;;;13.89;61.06
78623;BME280;67943;54.412;9.502;2023-10-08T17:35:09;102381.50;;;13.74;61.83
78623;BME280;67943;54.412;9.502;2023-10-08T17:40:12;102347.16;;;13.70;61.09
78623;BME280;67943;54.412;9.502;2023-10-08T17:45:14;102337.50;;;13.63;60.83
78623;BME280;67943;54.412;9.502;2023-10-08T17:50:15;102320.84;;;13.55;60.32
78623;BME280;67943;54.412;9.502;2023-10-08T17:55:18;102317.44;;;13.43;60.35
78623;BME280;67943;54.412;9.502;2023-10-08T18:00:20;102328.06;;;13.34;60.34
78623;BME280;67943;54.412;9.502;2023-10-08T18:05:24;102313.19;;;13.26;60.70
78623;BME280;67943;54.412;9.502;2023-10-08T18:10:28;102311.50;;;13.17;61.93
78623;BME280;67943;54.412;9.502;2023-10-08T18:15:32;102308.88;;;13.15;62.56
78623;BME280;67943;54.412;9.502;2023-10-08T18:20:36;102337.94;;;13.11;62.86
78623;BME280;67943;54.412;9.502;2023-10-08T18:25:45;102327.44;;;13.00;64.16
78623;BME280;67943;54.412;9.502;2023-10-08T18:30:47;102318.69;;;12.94;65.62
78623;BME280;67943;54.412;9.502;2023-10-08T18:35:50;102324.81;;;12.99;65.01
78623;BME280;67943;54.412;9.502;2023-10-08T18:40:53;102305.41;;;13.00;65.28
78623;BME280;67943;54.412;9.502;2023-10-08T18:45:54;102301.88;;;13.01;65.07
78623;BME280;67943;54.412;9.502;2023-10-08T18:51:04;102303.69;;;12.99;65.05
78623;BME280;67943;54.412;9.502;2023-10-08T18:56:08;102286.09;;;12.98;64.42
78623;BME280;67943;54.412;9.502;2023-10-08T19:01:12;102271.16;;;12.91;64.91
78623;BME280;67943;54.412;9.502;2023-10-08T19:06:14;102262.41;;;12.81;65.50
78623;BME280;67943;54.412;9.502;2023-10-08T19:11:18;102258.94;;;12.73;66.33
78623;BME280;67943;54.412;9.502;2023-10-08T19:16:19;102232.53;;;12.73;66.51
78623;BME280;67943;54.412;9.502;2023-10-08T19:21:21;102244.06;;;12.63;67.27
78623;BME280;67943;54.412;9.502;2023-10-08T19:26:27;102257.28;;;12.61;67.67
78623;BME280;67943;54.412;9.502;2023-10-08T19:31:29;102266.09;;;12.59;67.95
78623;BME280;67943;54.412;9.502;2023-10-08T19:36:31;102262.59;;;12.54;68.30
78623;BME280;67943;54.412;9.502;2023-10-08T19:41:33;102267.91;;;12.47;68.75
78623;BME280;67943;54.412;9.502;2023-10-08T19:46:35;102271.41;;;12.52;69.17
78623;BME280;67943;54.412;9.502;2023-10-08T19:51:36;102260.84;;;12.51;69.36
78623;BME280;67943;54.412;9.502;2023-10-08T19:56:41;102236.22;;;12.50;69.48
78623;BME280;67943;54.412;9.502;2023-10-08T20:01:42;102226.56;;;12.45;69.53
78623;BME280;67943;54.412;9.502;2023-10-08T20:06:44;102219.59;;;12.41;70.11
78623;BME280;67943;54.412;9.502;2023-10-08T20:11:47;102222.25;;;12.36;70.33
78623;BME280;67943;54.412;9.502;2023-10-08T20:16:49;102217.84;;;12.37;70.65
78623;BME280;67943;54.412;9.502;2023-10-08T20:21:53;102212.56;;;12.37;70.57
78623;BME280;67943;54.412;9.502;2023-10-08T20:26:56;102211.69;;;12.35;71.02
78623;BME280;67943;54.412;9.502;2023-10-08T20:31:58;102212.59;;;12.34;70.93
78623;BME280;67943;54.412;9.502;2023-10-08T20:37:01;102206.44;;;12.29;71.09
78623;BME280;67943;54.412;9.502;2023-10-08T20:42:05;102206.44;;;12.29;71.19
78623;BME280;67943;54.412;9.502;2023-10-08T20:47:07;102209.97;;;12.26;71.11
78623;BME280;67943;54.412;9.502;2023-10-08T20:52:09;102216.13;;;12.27;71.39
78623;BME280;67943;54.412;9.502;2023-10-08T20:57:14;102220.53;;;12.29;71.50
78623;BME280;67943;54.412;9.502;2023-10-08T21:02:16;102223.19;;;12.28;71.77
78623;BME280;67943;54.412;9.502;2023-10-08T21:07:18;102223.19;;;12.25;72.92
78623;BME280;67943;54.412;9.502;2023-10-08T21:12:21;102214.41;;;12.23;73.78
78623;BME280;67943;54.412;9.502;2023-10-08T21:17:23;102204.72;;;12.23;74.28
78623;BME280;67943;54.412;9.502;2023-10-08T21:22:26;102184.50;;;12.21;74.94
78623;BME280;67943;54.412;9.502;2023-10-08T21:27:29;102159.91;;;12.15;76.12
78623;BME280;67943;54.412;9.502;2023-10-08T21:32:32;102168.78;;;12.05;76.71
78623;BME280;67943;54.412;9.502;2023-10-08T21:37:34;102153.88;;;11.94;77.97
78623;BME280;67943;54.412;9.502;2023-10-08T21:42:37;102153.91;;;11.92;77.84
78623;BME280;67943;54.412;9.502;2023-10-08T21:47:40;102168.94;;;11.78;78.31
78623;BME280;67943;54.412;9.502;2023-10-08T21:52:43;102152.22;;;11.73;79.52
78623;BME280;67943;54.412;9.502;2023-10-08T21:57:48;102149.56;;;11.73;80.27
78623;BME280;67943;54.412;9.502;2023-10-08T22:02:50;102140.78;;;11.75;80.26
78623;BME280;67943;54.412;9.502;2023-10-08T22:07:52;102114.41;;;11.75;80.48
78623;BME280;67943;54.412;9.502;2023-10-08T22:12:56;102117.94;;;11.79;80.42
78623;BME280;67943;54.412;9.502;2023-10-08T22:17:58;102128.47;;;11.76;80.60
78623;BME280;67943;54.412;9.502;2023-10-08T22:23:02;102112.66;;;11.73;80.17
78623;BME280;67943;54.412;9.502;2023-10-08T22:28:05;102095.97;;;11.72;80.24
78623;BME280;67943;54.412;9.502;2023-10-08T22:33:11;102084.53;;;11.72;80.47
78623;BME280;67943;54.412;9.502;2023-10-08T22:38:14;102065.22;;;11.70;80.81
78623;BME280;67943;54.412;9.502;2023-10-08T22:43:20;102074.03;;;11.63;81.18
78623;BME280;67943;54.412;9.502;2023-10-08T22:48:23;102059.97;;;11.61;81.48
78623;BME280;67943;54.412;9.502;2023-10-08T22:53:36;102061.75;;;11.59;81.92
78623;BME280;67943;54.412;9.502;2023-10-08T22:58:39;102045.06;;;11.58;82.01
78623;BME280;67943;54.412;9.502;2023-10-08T23:03:41;102051.22;;;11.56;82.12
78623;BME280;67943;54.412;9.502;2023-10-08T23:08:44;102036.28;;;11.56;82.34
78623;BME280;67943;54.412;9.502;2023-10-08T23:13:47;102024.91;;;11.49;82.36
78623;BME280;67943;54.412;9.502;2023-10-08T23:18:50;102024.97;;;11.36;82.87
78623;BME280;67943;54.412;9.502;2023-10-08T23:23:55;102001.25;;;11.36;83.16
78623;BME280;67943;54.412;9.502;2023-10-08T23:28:58;101995.13;;;11.32;83.23
78623;BME280;67943;54.412;9.502;2023-10-08T23:34:00;101981.09;;;11.30;83.22
78623;BME280;67943;54.412;9.502;2023-10-08T23:39:06;101990.75;;;11.28;83.64
78623;BME280;67943;54.412;9.502;2023-10-08T23:44:18;101967.09;;;11.22;83.04
78623;BME280;67943;54.412;9.502;2023-10-08T23:49:25;101949.53;;;11.21;83.15
78623;BME280;67943;54.412;9.502;2023-10-08T23:54:28;101950.44;;;11.19;83.27
78623;BME280;67943;54.412;9.502;2023-10-08T23:59:34;101925.84;;;11.18;83.22
